Latest Weather Observations for Archerfield

IDQ60901

Issued at 11:11 am EST Tuesday 27 January 2015 (issued every 10 minutes, with the page automatically refreshed every 10 minutes)

About weather observations | Map of Brisbane area stations | Latest observations for Brisbane area | Other Formats
Station Details ID: 040211 Name: ARCHERFIELD AIRPORT Lat: -27.57 Lon: 153.01 Height: 12.5 m
Data from the previous 72 hours. | See also: Recent months at Archerfield
Date/Time
EST
Tmp

°C
App
Tmp
°C
Dew
Point
°C
Rel
Hum
%
Delta-T

°C
Wind Press
QNH
hPa
Press
MSL
hPa
Rain
since
9 am
mm
Dir
 
Spd
km/h
Gust
km/h
Spd
kts
Gust
kts
27/11:00am 27.9 29.3 21.9 70 4.0 E 17 26 9 14 1008.1 1008.0 0.0
27/10:30am 28.6 28.3 20.3 60 5.5 ESE 22 30 12 16 1008.1 1008.0 0.0
27/10:00am 28.6 28.3 19.5 58 5.9 E 20 32 11 17 1008.2 1008.1 0.0
27/09:30am 28.9 28.9 20.1 59 5.8 ESE 20 28 11 15 1007.9 1007.8 0.0
27/09:00am 28.9 29.1 20.6 61 5.5 ESE 20 28 11 15 1007.9 1007.8 0.0
27/08:30am 28.1 28.6 20.9 65 4.8 ESE 19 24 10 13 1007.8 1007.7 0.0
27/08:00am 27.4 27.6 20.2 65 4.7 E 19 24 10 13 1007.9 1007.8 0.0
27/07:30am 26.7 27.8 21.2 72 3.6 ESE 17 24 9 13 1007.7 1007.6 0.0
27/07:00am 26.7 27.9 21.5 73 3.5 E 17 24 9 13 1007.7 1007.6 0.0
27/06:30am 26.2 29.5 21.8 77 2.9 ESE 7 13 4 7 1007.7 1007.6 0.0
27/06:00am 25.0 28.4 21.7 82 2.2 SE 6 7 3 4 1007.7 1007.6 0.0
27/05:30am 24.1 27.2 21.4 85 1.8 SE 7 9 4 5 1007.4 1007.3 0.0
27/05:00am 24.3 27.0 21.4 84 1.9 ESE 9 13 5 7 1006.9 1006.8 0.0
27/04:30am 24.3 26.9 21.2 83 2.0 ESE 9 13 5 7 1006.7 1006.6 0.0
27/04:00am 24.7 27.4 21.4 82 2.2 SE 9 15 5 8 1006.6 1006.5 0.0
27/03:30am 24.8 27.3 21.7 83 2.1 SE 11 17 6 9 1006.5 1006.4 0.0
27/03:00am 24.8 26.8 21.5 82 2.2 ESE 13 19 7 10 1006.4 1006.3 0.0
27/02:30am 25.1 26.4 21.6 81 2.3 ESE 17 24 9 13 1006.2 1006.1 0.0
27/02:00am 25.1 26.5 21.8 82 2.2 ESE 17 22 9 12 1006.6 1006.5 0.0
27/01:30am 25.1 27.7 22.0 83 2.1 SE 11 13 6 7 1006.9 1006.8 0.0
27/01:00am 25.4 28.1 22.1 82 2.2 ENE 11 17 6 9 1007.1 1007.0 0.0
27/12:30am 25.3 28.4 22.2 83 2.1 ENE 9 13 5 7 1007.5 1007.4 0.0
 
Date/Time
EST
Tmp

°C
App
Tmp
°C
Dew
Point
°C
Rel
Hum
%
Delta-T

°C
Wind Press
QNH
hPa
Press
MSL
hPa
Rain
since
9 am
mm
Dir
 
Spd
km/h
Gust
km/h
Spd
kts
Gust
kts
26/11:30pm 25.9 29.0 22.2 80 2.5 ESE 9 13 5 7 1008.4 1008.3 0.0
26/11:00pm 25.8 28.5 22.1 80 2.5 E 11 15 6 8 1008.6 1008.5 0.0
26/10:30pm 25.9 28.6 22.2 80 2.5 E 11 17 6 9 1008.6 1008.5 0.0
26/10:00pm 25.9 27.8 22.0 79 2.6 E 15 20 8 11 1008.3 1008.2 0.0
26/09:30pm 26.0 27.6 22.1 79 2.6 ESE 17 20 9 11 1008.7 1008.6 0.0
26/09:00pm 26.2 27.2 21.8 77 2.9 ESE 19 24 10 13 1008.6 1008.5 0.0
26/08:30pm 26.4 27.2 21.8 76 3.1 ESE 20 30 11 16 1008.8 1008.7 0.0
26/08:00pm 26.6 26.9 22.2 77 3.0 ESE 24 32 13 17 1008.9 1008.8 0.0
26/07:30pm 26.8 27.3 22.6 78 2.8 ESE 24 33 13 18 1008.1 1008.0 0.0
26/07:00pm 26.9 27.7 22.5 77 3.0 ESE 22 35 12 19 1008.2 1008.1 0.0
26/06:30pm 27.1 27.3 22.7 77 3.0 ESE 26 35 14 19 1007.6 1007.5 0.0
26/06:00pm 27.3 26.6 22.5 75 3.3 ESE 30 44 16 24 1006.4 1006.3 0.0
26/05:30pm 27.9 28.4 23.3 76 3.1 ESE 26 39 14 21 1006.7 1006.6 0.0
26/05:00pm 28.3 29.5 23.2 74 3.5 ESE 22 30 12 16 1006.2 1006.1 0.0
26/04:30pm 28.8 30.0 23.2 71 3.8 ESE 22 33 12 18 1005.6 1005.5 0.0
26/04:00pm 29.5 29.6 22.5 66 4.8 ESE 26 33 14 18 1005.6 1005.5 0.0
26/03:30pm 31.0 30.0 21.2 56 6.6 E 28 39 15 21 1005.3 1005.2 0.0
26/03:00pm 32.7 32.8 21.9 53 7.4 ENE 24 37 13 20 1004.8 1004.7 0.0
26/02:30pm 32.5 31.8 21.0 50 7.7 ENE 26 35 14 19 1005.0 1004.9 0.0
26/02:00pm 32.4 32.2 21.3 52 7.5 E 24 33 13 18 1004.8 1004.7 0.0
26/01:30pm 32.6 32.6 22.4 55 7.0 ENE 26 33 14 18 1005.1 1005.0 0.0
26/01:00pm 32.5 34.0 23.7 59 6.1 ENE 22 33 12 18 1005.4 1005.3 0.0
26/12:30pm 32.8 34.4 23.2 57 6.6 E 20 30 11 16 1005.6 1005.5 0.0
26/12:00pm 32.5 33.4 22.0 54 7.2 E 20 28 11 15 1006.0 1005.9 0.0
26/11:30am 33.0 34.8 23.6 57 6.5 ESE 20 28 11 15 1006.1 1006.0 0.0
26/11:00am 32.1 34.4 24.4 63 5.4 ESE 20 26 11 14 1006.5 1006.4 0.0
26/10:30am 32.6 36.6 24.4 62 5.8 ESE 11 17 6 9 1006.6 1006.5 0.0
26/10:00am 32.2 35.2 22.6 57 6.6 ESE 11 19 6 10 1006.7 1006.6 0.0
26/09:30am 32.0 36.7 24.3 63 5.4 ENE 7 11 4 6 1006.9 1006.8 0.0
26/09:00am 31.3 35.5 23.4 63 5.5 E 7 11 4 6 1007.0 1006.9 0.0
26/08:30am 29.7 33.9 22.4 65 5.0 SSE 4 9 2 5 1007.0 1006.9 0.0
26/08:00am 28.4 31.4 21.2 65 4.8 S 7 9 4 5 1007.0 1006.9 0.0
26/07:30am 27.1 30.1 20.9 69 4.1 SSW 6 11 3 6 1007.0 1006.9 0.0
26/07:00am 26.2 28.5 20.7 71 3.6 SSW 9 13 5 7 1007.0 1006.9 0.0
26/06:30am 25.4 28.3 21.1 77 2.8 S 7 11 4 6 1006.7 1006.6 0.0
26/06:00am 24.9 28.1 21.2 80 2.4 SSE 6 9 3 5 1006.2 1006.1 0.0
26/05:30am 24.2 26.5 21.3 84 1.9 S 11 15 6 8 1005.9 1005.8 0.0
26/05:00am 24.4 26.1 20.9 81 2.3 S 13 15 7 8 1005.5 1005.4 0.0
26/04:30am 24.6 26.5 21.3 82 2.2 SSE 13 15 7 8 1005.4 1005.3 0.0
26/04:00am 24.6 26.7 21.7 84 1.9 SSE 13 17 7 9 1005.4 1005.3 0.0
26/03:31am 24.8 27.3 21.7 83 2.1 S 11 17 6 9 1005.2 1005.1 0.0
26/03:30am 24.7 27.2 21.8 84 1.9 S 11 15 6 8 1005.3 1005.2 0.0
26/03:13am 25.1 27.6 21.8 82 2.2 S 11 15 6 8 1005.3 1005.2 0.0
26/03:00am 24.8 27.9 22.1 85 1.8 S 9 13 5 7 1005.2 1005.1 0.0
26/02:30am 24.9 29.5 21.8 83 2.1 CALM 0 4 0 2 1005.2 1005.1 0.0
26/02:00am 25.4 28.3 21.7 80 2.5 ESE 9 11 5 6 1005.0 1004.9 0.0
26/01:30am 25.2 29.8 21.7 81 2.3 CALM 0 0 0 0 1005.3 1005.2 0.0
26/01:00am 25.7 30.1 21.4 77 2.9 CALM 0 0 0 0 1005.7 1005.6 0.0
26/12:30am 26.0 29.8 21.7 77 2.9 SE 4 7 2 4 1006.1 1006.0 0.0
26/12:24am 25.9 29.2 21.8 78 2.7 SE 7 11 4 6 1006.2 1006.1 0.0
26/12:00am 26.4 29.4 22.7 80 2.5 SE 11 15 6 8 1006.4 1006.3 0.0
 
Date/Time
EST
Tmp

°C
App
Tmp
°C
Dew
Point
°C
Rel
Hum
%
Delta-T

°C
Wind Press
QNH
hPa
Press
MSL
hPa
Rain
since
9 am
mm
Dir
 
Spd
km/h
Gust
km/h
Spd
kts
Gust
kts
25/11:43pm 27.1 31.1 24.4 85 1.9 SSE 11 19 6 10 1006.6 1006.5 0.0
25/11:30pm 27.0 31.5 24.6 87 1.7 SE 9 13 5 7 1006.6 1006.5 0.0
25/11:00pm 27.1 31.3 24.7 87 1.7 SE 11 15 6 8 1006.1 1006.0 0.0
25/10:30pm 26.7 30.3 24.4 87 1.6 NNE 13 15 7 8 1006.0 1005.9 0.0
25/10:00pm 27.4 30.8 24.7 85 1.9 E 15 20 8 11 1005.9 1005.8 0.0
25/09:30pm 27.5 30.8 25.1 87 1.7 ESE 17 22 9 12 1006.5 1006.4 0.0
25/09:00pm 27.4 31.4 25.0 87 1.7 NE 13 15 7 8 1005.8 1005.7 0.0
25/08:30pm 27.5 31.4 24.9 86 1.8 NE 13 19 7 10 1005.7 1005.6 0.0
25/08:00pm 27.6 30.7 24.8 85 2.0 NE 17 20 9 11 1005.6 1005.5 0.0
25/07:30pm 27.7 30.2 24.5 83 2.2 NNE 19 22 10 12 1005.2 1005.1 0.0
25/07:00pm 28.1 30.3 24.3 80 2.6 NNE 20 28 11 15 1004.5 1004.4 0.0
25/06:30pm 28.8 30.1 24.1 76 3.3 NNE 24 32 13 17 1003.6 1003.5 0.0
25/06:00pm 29.7 31.5 24.3 73 3.8 NNE 22 32 12 17 1003.0 1002.9 0.0
25/05:30pm 31.2 33.3 24.1 66 4.9 NNE 20 26 11 14 1002.6 1002.5 0.0
25/05:00pm 32.2 34.6 24.3 63 5.5 NNE 19 24 10 13 1002.1 1002.0 0.0
25/04:30pm 33.2 36.1 24.4 60 6.2 NNE 17 22 9 12 1002.2 1002.1 0.0
25/04:00pm 33.2 36.8 23.8 57 6.6 N 11 19 6 10 1002.3 1002.2 0.0
25/03:30pm 36.3 37.8 20.5 39 10.6 WSW 13 22 7 12 1002.4 1002.3 0.0
25/03:00pm 36.2 40.2 23.1 47 9.1 SW 7 19 4 10 1002.5 1002.4 0.0
25/02:30pm 35.9 39.0 23.5 48 8.7 SW 13 22 7 12 1002.8 1002.7 0.0
25/02:00pm 35.0 37.4 22.3 47 8.8 SSW 13 22 7 12 1003.0 1002.9 0.0
25/01:30pm 34.4 36.5 22.5 50 8.2 WSW 15 24 8 13 1003.1 1003.0 0.0
25/01:00pm 34.4 35.8 22.8 51 8.0 SW 20 30 11 16 1003.4 1003.3 0.0
25/12:30pm 33.3 34.0 21.5 50 8.0 WSW 20 28 11 15 1003.9 1003.8 0.0
25/12:00pm 32.7 33.6 21.5 51 7.6 WSW 19 30 10 16 1004.3 1004.2 0.0
25/11:30am 32.4 35.0 23.3 58 6.3 W 15 22 8 12 1004.6 1004.5 0.0
25/11:00am 31.5 33.6 22.5 59 6.2 W 15 20 8 11 1005.0 1004.9 0.0
25/10:30am 31.3 32.8 23.1 61 5.6 WSW 20 26 11 14 1005.4 1005.3 0.0
25/10:00am 30.7 33.5 22.3 61 5.7 WNW 11 26 6 14 1005.6 1005.5 0.0
25/09:30am 29.5 32.4 22.5 66 4.8 WNW 11 17 6 9 1006.0 1005.9 0.0
25/09:00am 28.7 32.3 22.0 67 4.5 W 6 13 3 7 1006.3 1006.2 0.0
25/08:30am 27.7 31.4 21.5 69 4.1 WSW 4 11 2 6 1006.6 1006.5 0.0
25/08:00am 27.0 29.7 20.3 66 4.4 S 6 9 3 5 1006.8 1006.7 0.0
25/07:30am 26.1 29.8 20.7 72 3.5 S 2 7 1 4 1006.9 1006.8 0.0
25/07:00am 24.7 27.5 20.8 79 2.6 S 7 11 4 6 1007.0 1006.9 0.0
25/06:30am 24.3 28.5 21.0 82 2.2 CALM 0 6 0 3 1006.7 1006.6 0.0
25/06:00am 22.7 27.0 21.2 91 1.0 CALM 0 6 0 3 1006.4 1006.3 0.0
25/05:30am 22.1 26.2 20.7 92 0.9 CALM 0 0 0 0 1006.1 1006.0 0.0
25/05:00am 22.0 26.0 20.6 92 0.9 CALM 0 0 0 0 1005.9 1005.8 0.0
25/04:30am 22.2 26.4 21.0 93 0.8 CALM 0 0 0 0 1005.9 1005.8 0.0
25/04:00am 22.0 26.1 20.8 93 0.8 CALM 0 0 0 0 1005.9 1005.8 0.0
25/03:30am 21.9 25.9 20.5 92 0.9 CALM 0 0 0 0 1005.7 1005.6 0.0
25/03:00am 22.2 25.6 21.0 93 0.8 WSW 4 7 2 4 1005.8 1005.7 0.0
25/02:30am 22.1 26.0 20.4 90 1.1 CALM 0 0 0 0 1005.9 1005.8 0.0
25/02:00am 22.5 26.8 21.1 92 0.9 CALM 0 2 0 1 1005.7 1005.6 0.0
25/01:30am 22.6 26.9 21.1 91 1.0 CALM 0 0 0 0 1005.8 1005.7 0.0
25/01:00am 22.7 26.9 21.0 90 1.1 CALM 0 0 0 0 1005.8 1005.7 0.0
25/12:30am 22.5 26.6 20.8 90 1.1 CALM 0 0 0 0 1006.1 1006.0 0.0
25/12:00am 22.7 26.9 21.0 90 1.1 CALM 0 0 0 0 1006.3 1006.2 0.0
 
Date/Time
EST
Tmp

°C
App
Tmp
°C
Dew
Point
°C
Rel
Hum
%
Delta-T

°C
Wind Press
QNH
hPa
Press
MSL
hPa
Rain
since
9 am
mm
Dir
 
Spd
km/h
Gust
km/h
Spd
kts
Gust
kts
24/11:30pm 22.5 26.6 20.8 90 1.1 CALM 0 0 0 0 1006.5 1006.4 0.0
24/11:00pm 23.3 27.0 20.8 86 1.6 SSE 2 6 1 3 1006.9 1006.8 0.0
24/10:30pm 23.9 28.3 21.4 86 1.6 CALM 0 2 0 1 1006.9 1006.8 0.0
24/10:00pm 23.7 26.5 20.8 84 1.9 NNE 7 7 4 4 1007.0 1006.9 0.0
24/09:30pm 23.4 26.3 20.7 85 1.8 N 6 9 3 5 1006.8 1006.7 0.0
24/09:00pm 23.7 26.5 20.8 84 1.9 N 7 9 4 5 1006.4 1006.3 0.0
24/08:30pm 24.3 27.1 20.8 81 2.3 NNE 7 9 4 5 1006.2 1006.1 0.0
24/08:00pm 24.6 26.6 20.7 79 2.6 NNE 11 15 6 8 1005.9 1005.8 0.0
24/07:30pm 26.0 27.5 20.6 72 3.5 ENE 13 15 7 8 1005.6 1005.5 0.0
24/07:00pm 26.3 27.7 20.4 70 3.9 ENE 13 20 7 11 1005.2 1005.1 0.0
24/06:30pm 26.2 27.6 21.0 73 3.4 NE 15 19 8 10 1005.1 1005.0 0.0
24/06:00pm 27.0 28.3 20.8 69 4.1 ENE 15 20 8 11 1004.7 1004.6 0.0
24/05:30pm 28.0 29.5 20.6 64 4.9 ENE 13 19 7 10 1004.5 1004.4 0.0
24/05:00pm 28.9 30.6 20.9 62 5.3 E 13 17 7 9 1004.5 1004.4 0.0
24/04:30pm 29.1 30.9 21.1 62 5.3 ESE 13 17 7 9 1004.4 1004.3 0.0
24/04:00pm 28.8 30.3 21.3 64 5.0 ESE 15 19 8 10 1004.3 1004.2 0.0
24/03:30pm 28.3 29.6 20.8 63 5.0 SE 15 19 8 10 1004.5 1004.4 0.0
24/03:00pm 28.9 30.1 19.8 58 6.0 SE 13 17 7 9 1004.5 1004.4 0.0
24/02:30pm 29.4 30.0 20.3 58 6.0 E 17 24 9 13 1004.8 1004.7 0.0
24/02:00pm 29.7 31.1 20.3 57 6.2 SSE 13 20 7 11 1005.0 1004.9 0.0
24/01:30pm 29.9 31.5 19.9 55 6.6 SSE 11 17 6 9 1005.2 1005.1 0.0
24/01:00pm 29.5 31.7 21.2 61 5.6 SSE 11 20 6 11 1005.4 1005.3 0.0
24/12:30pm 28.9 30.2 20.1 59 5.8 SE 13 20 7 11 1005.6 1005.5 0.0
24/12:00pm 29.0 29.8 19.9 58 6.0 ESE 15 22 8 12 1005.9 1005.8 0.0
24/11:30am 28.8 29.4 21.0 62 5.2 SE 19 26 10 14 1005.9 1005.8 0.0

Latest Capital City Observations: Canberra | Sydney | Melbourne | Brisbane | Adelaide | Perth | Hobart | Darwin

Other Formats:

Comma delimited format used in spreadsheet applications
http://www.bom.gov.au/fwo/IDQ60901/IDQ60901.94575.axf

JavaScript Object Notation format (JSON) in row-major order
http://www.bom.gov.au/fwo/IDQ60901/IDQ60901.94575.json